Time;durP1;ratioP1;P1;durP2;ratioP2;P2;SDS_P1;SDS_P2;PMS_P1;PMS_P2;Temp;Humidity;BMP_temperature;BMP_pressure;BME280_temperature;BME280_humidity;BME280_pressure;Samples;Min_cycle;Max_cycle;Signal;HPM_P1;HPM_P2
2023/09/03 05:18:54;;;;;;;;;;;;;;;;;;5005883;28;20402;-48
2023/09/03 05:21:19;;;;;;;;;;;;;;;;;;5009981;28;19914;-50
2023/09/03 05:23:46;;;;;;;;;;;;;;;;;;5009707;28;19909;-51
2023/09/03 05:26:11;;;;;;;;;;;;;;;;;;5009487;28;19913;-49
2023/09/03 05:28:37;;;;;;;;;;;;;;;;;;5009234;28;19972;-50
2023/09/03 05:31:03;;;;;;;;;;;;;;;;;;5009236;28;19910;-51
2023/09/03 05:33:29;;;;;;;;;;;;;;;;;;5009435;28;19910;-51
2023/09/03 05:35:55;;;;;;;;;;;;;;;;;;5009537;28;19920;-52
2023/09/03 05:38:21;;;;;;;;;;;;;;;;;;5009818;28;19910;-48
2023/09/03 05:40:47;;;;;;;;;;;;;;;;;;5009960;28;19917;-51
2023/09/03 05:43:13;;;;;;;;;;;;;;;;;;5013342;28;19965;-49
2023/09/03 05:45:38;;;;;;;;;;;;;;;;;;4995108;28;20040;-51
2023/09/03 05:48:04;;;;;;;;;;;;;;;;;;5012047;28;19921;-50
2023/09/03 05:50:30;;;;;;;;;;;;;;;;;;5014543;28;20338;-50
2023/09/03 05:52:56;;;;;;;;;;;;;;;;;;5014561;28;19910;-49
2023/09/03 05:55:22;;;;;;;;;;;;;;;;;;4994629;28;19933;-47
2023/09/03 05:57:48;;;;;;;;;;;;;;;;;;5011867;28;19952;-51
2023/09/03 06:00:14;;;;;;;;;;;;;;;;;;5011899;28;19910;-48
2023/09/03 06:02:40;;;;;;;;;;;;;;;;;;5012890;28;20036;-48
2023/09/03 06:05:06;;;;;;;;;;;;;;;;;;5013068;28;19996;-51
2023/09/03 06:07:32;;;;;;;;;;;;;;;;;;4994454;28;19913;-48
2023/09/03 06:09:58;;;;;;;;;;;;;;;;;;5012658;28;19913;-47
2023/09/03 06:12:24;;;;;;;;;;;;;;;;;;5012453;28;19910;-51
2023/09/03 06:14:50;;;;;;;;;;;;;;;;;;5013023;28;20299;-50
2023/09/03 06:17:16;;;;;;;;;;;;;;;;;;5012704;28;19917;-44
2023/09/03 06:19:42;;;;;;;;;;;;;;;;;;5012252;28;20383;-44
2023/09/03 06:22:08;;;;;;;;;;;;;;;;;;5012411;28;20323;-44
2023/09/03 06:24:34;;;;;;;;;;;;;;;;;;5012330;28;19914;-47
2023/09/03 06:27:00;;;;;;;;;;;;;;;;;;5012573;28;19921;-44
2023/09/03 06:29:26;;;;;;;;;;;;;;;;;;5012231;28;19917;-47
2023/09/03 06:31:52;;;;;;;;;;;;;;;;;;5012755;28;20359;-43
2023/09/03 06:34:20;;;;;;;;;;;;;;;;;;5012512;28;19972;-45
2023/09/03 06:36:46;;;;;;;;;;;;;;;;;;5012186;28;20012;-44
2023/09/03 06:39:13;;;;;;;;;;;;;;;;;;5010319;28;20016;-44
2023/09/03 06:41:39;;;;;;;;;;;;;;;;;;5013061;28;19917;-44
2023/09/03 06:44:05;;;;;;;;;;;;;;;;;;5013209;28;19964;-44
2023/09/03 06:46:31;;;;;;;;;;;;;;;;;;5012776;28;20414;-44
2023/09/03 06:48:57;;;;;;;;;;;;;;;;;;4995358;28;19917;-44
2023/09/03 06:51:22;;;;;;;;;;;;;;;;;;5013206;28;20414;-43
2023/09/03 06:53:48;;;;;;;;;;;;;;;;;;5012116;28;19914;-46
2023/09/03 06:56:14;;;;;;;;;;;;;;;;;;5011042;28;19975;-43
2023/09/03 06:58:40;;;;;;;;;;;;;;;;;;5012970;28;19909;-44
2023/09/03 07:01:07;;;;;;;;;;;;;;;;;;5013234;28;20367;-45
2023/09/03 07:03:33;;;;;;;;;;;;;;;;;;5013019;28;20559;-43
2023/09/03 07:05:59;;;;;;;;;;;;;;;;;;5012093;28;19952;-44
2023/09/03 07:08:25;;;;;;;;;;;;;;;;;;5012963;28;19967;-43
2023/09/03 07:10:51;;;;;;;;;;;;;;;;;;5013033;28;20378;-44
2023/09/03 07:13:17;;;;;;;;;;;;;;;;;;5012067;28;19918;-45
2023/09/03 07:15:42;;;;;;;;;;;;;;;;;;5012716;28;20043;-43
2023/09/03 07:18:08;;;;;;;;;;;;;;;;;;5009677;28;19961;-46
2023/09/03 07:20:34;;;;;;;;;;;;;;;;;;5011233;28;19910;-43
2023/09/03 07:23:00;;;;;;;;;;;;;;;;;;5002560;28;19913;-47
2023/09/03 07:25:26;;;;;;;;;;;;;;;;;;4991068;28;19945;-47
2023/09/03 07:27:52;;;;;;;;;;;;;;;;;;5000159;28;19924;-46
2023/09/03 07:30:18;;;;;;;;;;;;;;;;;;5010476;28;19914;-45
2023/09/03 07:32:44;;;;;;;;;;;;;;;;;;5009739;28;19920;-44
2023/09/03 07:35:09;;;;;;;;;;;;;;;;;;5010257;28;20459;-44
2023/09/03 07:37:35;;;;;;;;;;;;;;;;;;5002613;28;19914;-47
2023/09/03 07:40:03;;;;;;;;;;;;;;;;;;5009192;28;20000;-43
2023/09/03 07:42:29;;;;;;;;;;;;;;;;;;5009714;28;19914;-43
2023/09/03 07:44:55;;;;;;;;;;;;;;;;;;5009648;28;19917;-44
2023/09/03 07:47:21;;;;;;;;;;;;;;;;;;5005769;28;19924;-43
2023/09/03 07:49:47;;;;;;;;;;;;;;;;;;5004297;28;19949;-44
2023/09/03 07:52:13;;;;;;;;;;;;;;;;;;5008856;28;19921;-43
2023/09/03 07:54:39;;;;;;;;;;;;;;;;;;5010571;28;20392;-44
2023/09/03 07:57:05;;;;;;;;;;;;;;;;;;5010029;28;19909;-45
2023/09/03 07:59:31;;;;;;;;;;;;;;;;;;5011078;28;19909;-44
2023/09/03 08:01:57;;;;;;;;;;;;;;;;;;5009850;28;19913;-45
2023/09/03 08:04:23;;;;;;;;;;;;;;;;;;5009281;28;19917;-46
2023/09/03 08:06:49;;;;;;;;;;;;;;;;;;5009853;28;19914;-45
2023/09/03 08:09:15;;;;;;;;;;;;;;;;;;5009100;28;19944;-44
2023/09/03 08:11:41;;;;;;;;;;;;;;;;;;5009128;28;19914;-45
2023/09/03 08:14:07;;;;;;;;;;;;;;;;;;5008323;28;20295;-45
2023/09/03 08:16:33;;;;;;;;;;;;;;;;;;5010052;28;20296;-45
2023/09/03 08:18:59;;;;;;;;;;;;;;;;;;5011701;28;19963;-44
2023/09/03 08:21:25;;;;;;;;;;;;;;;;;;5024484;28;21439;-45
2023/09/03 08:23:51;;;;;;;;;;;;;;;;;;5008691;28;19917;-46
2023/09/03 08:26:17;;;;;;;;;;;;;;;;;;5008929;28;19914;-45
2023/09/03 08:28:43;;;;;;;;;;;;;;;;;;5007765;28;19913;-44
2023/09/03 08:31:08;;;;;;;;;;;;;;;;;;5009789;28;19964;-44
2023/09/03 08:33:34;;;;;;;;;;;;;;;;;;5008194;28;19916;-44
2023/09/03 08:36:01;;;;;;;;;;;;;;;;;;5009073;28;20334;-45
2023/09/03 08:38:27;;;;;;;;;;;;;;;;;;5009577;28;19910;-44
2023/09/03 08:40:53;;;;;;;;;;;;;;;;;;5008718;28;19916;-48
2023/09/03 08:43:19;;;;;;;;;;;;;;;;;;5009722;28;19986;-45
2023/09/03 08:45:45;;;;;;;;;;;;;;;;;;5008938;28;20433;-47
2023/09/03 08:48:11;;;;;;;;;;;;;;;;;;5009126;28;19929;-44
2023/09/03 08:50:37;;;;;;;;;;;;;;;;;;5006420;28;19913;-47
2023/09/03 08:53:03;;;;;;;;;;;;;;;;;;5010157;28;20314;-48
2023/09/03 08:55:29;;;;;;;;;;;;;;;;;;5009073;28;19977;-47
2023/09/03 08:57:55;;;;;;;;;;;;;;;;;;5009153;28;19958;-45
2023/09/03 09:00:21;;;;;;;;;;;;;;;;;;5006293;28;19996;-43
2023/09/03 09:02:47;;;;;;;;;;;;;;;;;;5007367;28;20442;-46
2023/09/03 09:05:13;;;;;;;;;;;;;;;;;;5011249;28;19909;-45
2023/09/03 09:07:38;;;;;;;;;;;;;;;;;;5016811;28;20029;-45
2023/09/03 09:10:04;;;;;;;;;;;;;;;;;;5008365;28;19944;-44
2023/09/03 09:12:30;;;;;;;;;;;;;;;;;;5009994;28;20393;-47
2023/09/03 09:14:56;;;;;;;;;;;;;;;;;;5006128;28;19914;-45
2023/09/03 09:17:22;;;;;;;;;;;;;;;;;;5004087;28;20372;-44
2023/09/03 09:19:48;;;;;;;;;;;;;;;;;;5000996;28;19953;-45
2023/09/03 09:22:14;;;;;;;;;;;;;;;;;;5009856;28;20350;-45
2023/09/03 09:24:40;;;;;;;;;;;;;;;;;;5009936;28;20009;-45
2023/09/03 09:27:06;;;;;;;;;;;;;;;;;;5008963;28;19924;-44
2023/09/03 09:29:32;;;;;;;;;;;;;;;;;;5007435;28;19960;-47
2023/09/03 09:31:58;;;;;;;;;;;;;;;;;;5008845;28;19964;-45
2023/09/03 09:34:24;;;;;;;;;;;;;;;;;;5007836;28;19963;-44
2023/09/03 09:36:49;;;;;;;;;;;;;;;;;;5003043;28;19916;-44
2023/09/03 09:39:15;;;;;;;;;;;;;;;;;;5008810;28;19932;-47
2023/09/03 09:41:41;;;;;;;;;;;;;;;;;;5009609;28;19909;-46
2023/09/03 09:44:08;;;;;;;;;;;;;;;;;;5008994;28;19909;-46
2023/09/03 09:46:34;;;;;;;;;;;;;;;;;;5005423;28;19949;-46
2023/09/03 09:49:00;;;;;;;;;;;;;;;;;;5007192;28;19909;-43
2023/09/03 09:51:26;;;;;;;;;;;;;;;;;;5007078;28;19964;-47
2023/09/03 09:53:52;;;;;;;;;;;;;;;;;;5008440;28;19917;-45
2023/09/03 09:56:18;;;;;;;;;;;;;;;;;;5008674;28;19951;-44
2023/09/03 09:58:43;;;;;;;;;;;;;;;;;;5008602;28;19916;-44
2023/09/03 10:01:09;;;;;;;;;;;;;;;;;;5007703;28;19981;-46
2023/09/03 10:03:35;;;;;;;;;;;;;;;;;;5007922;28;20022;-44
2023/09/03 10:06:01;;;;;;;;;;;;;;;;;;5007999;28;20032;-44
2023/09/03 10:08:27;;;;;;;;;;;;;;;;;;5008558;28;19920;-45
2023/09/03 10:10:53;;;;;;;;;;;;;;;;;;5007438;28;19909;-44
2023/09/03 10:13:19;;;;;;;;;;;;;;;;;;5008634;28;19910;-45
2023/09/03 10:15:45;;;;;;;;;;;;;;;;;;5009423;28;19909;-46
2023/09/03 10:18:11;;;;;;;;;;;;;;;;;;5008581;28;19941;-48
2023/09/03 10:20:37;;;;;;;;;;;;;;;;;;5008528;28;20023;-44
2023/09/03 10:23:03;;;;;;;;;;;;;;;;;;5008790;28;19909;-45
2023/09/03 10:25:29;;;;;;;;;;;;;;;;;;5008646;28;19915;-45
2023/09/03 10:27:55;;;;;;;;;;;;;;;;;;5009197;28;20300;-44
2023/09/03 10:30:20;;;;;;;;;;;;;;;;;;5012068;28;20457;-43
2023/09/03 10:32:46;;;;;;;;;;;;;;;;;;5012577;28;19910;-43
2023/09/03 10:35:12;;;;;;;;;;;;;;;;;;5011927;28;20365;-43
2023/09/03 10:37:38;;;;;;;;;;;;;;;;;;5012293;28;20518;-46
2023/09/03 10:40:04;;;;;;;;;;;;;;;;;;5011853;28;20004;-46
2023/09/03 10:42:31;;;;;;;;;;;;;;;;;;5009040;28;19909;-45
2023/09/03 10:44:57;;;;;;;;;;;;;;;;;;5009151;28;20407;-44
2023/09/03 10:47:23;;;;;;;;;;;;;;;;;;5010796;28;19976;-46
2023/09/03 10:49:49;;;;;;;;;;;;;;;;;;5010109;28;19937;-44
2023/09/03 10:52:15;;;;;;;;;;;;;;;;;;5005605;28;19960;-44
2023/09/03 10:54:41;;;;;;;;;;;;;;;;;;5010643;28;19916;-43
2023/09/03 10:57:08;;;;;;;;;;;;;;;;;;5010778;28;19909;-45
2023/09/03 10:59:33;;;;;;;;;;;;;;;;;;5010150;28;20471;-44
2023/09/03 11:02:01;;;;;;;;;;;;;;;;;;5010337;28;19964;-44
2023/09/03 11:04:26;;;;;;;;;;;;;;;;;;5010101;28;20383;-43
2023/09/03 11:06:52;;;;;;;;;;;;;;;;;;5010412;28;20020;-45
2023/09/03 11:09:18;;;;;;;;;;;;;;;;;;5010664;28;19933;-43
2023/09/03 11:11:44;;;;;;;;;;;;;;;;;;5010608;28;19917;-46
2023/09/03 11:14:11;;;;;;;;;;;;;;;;;;5006179;28;19913;-46
2023/09/03 11:16:36;;;;;;;;;;;;;;;;;;5008487;28;19918;-44
2023/09/03 11:19:04;;;;;;;;;;;;;;;;;;5009915;28;20093;-45
2023/09/03 11:21:30;;;;;;;;;;;;;;;;;;5010797;28;19910;-45
2023/09/03 11:23:55;;;;;;;;;;;;;;;;;;5008771;28;19909;-44
2023/09/03 11:26:21;;;;;;;;;;;;;;;;;;5010041;28;19909;-44
2023/09/03 11:28:47;;;;;;;;;;;;;;;;;;5008371;28;19913;-43
2023/09/03 11:31:13;;;;;;;;;;;;;;;;;;5013895;28;19913;-44
2023/09/03 11:33:39;;;;;;;;;;;;;;;;;;5008308;28;20006;-45
2023/09/03 11:36:06;;;;;;;;;;;;;;;;;;5008145;28;20139;-43
2023/09/03 11:38:33;;;;;;;;;;;;;;;;;;5007434;28;19914;-44
2023/09/03 11:40:59;;;;;;;;;;;;;;;;;;5008260;28;19917;-44
2023/09/03 11:43:25;;;;;;;;;;;;;;;;;;5006785;28;20413;-44
2023/09/03 11:45:51;;;;;;;;;;;;;;;;;;5005756;28;20307;-47
2023/09/03 11:48:16;;;;;;;;;;;;;;;;;;5009116;28;20012;-47
2023/09/03 11:50:42;;;;;;;;;;;;;;;;;;5008422;28;20396;-44
2023/09/03 11:53:10;;;;;;;;;;;;;;;;;;5006097;28;19928;-44
2023/09/03 11:55:36;;;;;;;;;;;;;;;;;;5008566;28;19992;-45
2023/09/03 11:58:02;;;;;;;;;;;;;;;;;;5003527;28;19920;-47
2023/09/03 12:00:28;;;;;;;;;;;;;;;;;;5027923;28;19913;-45
2023/09/03 12:02:54;;;;;;;;;;;;;;;;;;5028021;28;19913;-47
2023/09/03 12:05:19;;;;;;;;;;;;;;;;;;5027438;28;19997;-45
2023/09/03 12:07:45;;;;;;;;;;;;;;;;;;4976419;28;19917;-45
2023/09/03 12:10:11;;;;;;;;;;;;;;;;;;4970799;28;19909;-45
2023/09/03 12:12:37;;;;;;;;;;;;;;;;;;4988527;28;19910;-46
2023/09/03 12:15:03;;;;;;;;;;;;;;;;;;4989034;28;19971;-44
2023/09/03 12:17:29;;;;;;;;;;;;;;;;;;4990338;28;19917;-46
2023/09/03 12:19:55;;;;;;;;;;;;;;;;;;5027657;28;20149;-45
2023/09/03 12:22:21;;;;;;;;;;;;;;;;;;4977238;28;20000;-45
2023/09/03 12:24:47;;;;;;;;;;;;;;;;;;5007942;28;19910;-45
2023/09/03 12:27:13;;;;;;;;;;;;;;;;;;5007356;28;20387;-44
2023/09/03 12:29:38;;;;;;;;;;;;;;;;;;5007927;28;19928;-46
2023/09/03 12:32:04;;;;;;;;;;;;;;;;;;4988501;28;19949;-44
2023/09/03 12:34:30;;;;;;;;;;;;;;;;;;5005803;28;19913;-47
2023/09/03 12:36:57;;;;;;;;;;;;;;;;;;5006346;28;19925;-45
2023/09/03 12:39:22;;;;;;;;;;;;;;;;;;5006023;28;20366;-45
2023/09/03 12:41:48;;;;;;;;;;;;;;;;;;5004476;28;19917;-44
2023/09/03 12:44:15;;;;;;;;;;;;;;;;;;4989372;28;19914;-45
2023/09/03 12:46:42;;;;;;;;;;;;;;;;;;5002465;28;19925;-46
2023/09/03 12:49:08;;;;;;;;;;;;;;;;;;5003325;28;20373;-45
2023/09/03 12:51:37;;;;;;;;;;;;;;;;;;5004097;28;20296;-44
2023/09/03 12:54:04;;;;;;;;;;;;;;;;;;5004374;28;19964;-46
2023/09/03 12:56:30;;;;;;;;;;;;;;;;;;5006115;28;20287;-48
2023/09/03 12:58:56;;;;;;;;;;;;;;;;;;5006176;28;20009;-44
2023/09/03 13:01:21;;;;;;;;;;;;;;;;;;5008417;28;20004;-46
2023/09/03 13:03:47;;;;;;;;;;;;;;;;;;4976292;28;20392;-47
2023/09/03 13:06:13;;;;;;;;;;;;;;;;;;5000233;28;20004;-45
2023/09/03 13:08:39;;;;;;;;;;;;;;;;;;5004253;28;19961;-46
2023/09/03 13:11:05;;;;;;;;;;;;;;;;;;5002869;28;20118;-46
2023/09/03 13:13:31;;;;;;;;;;;;;;;;;;5009361;28;19958;-45
2023/09/03 13:15:59;;;;;;;;;;;;;;;;;;5000781;28;19980;-47
2023/09/03 13:18:25;;;;;;;;;;;;;;;;;;4999340;28;19917;-44
2023/09/03 13:20:51;;;;;;;;;;;;;;;;;;5003338;28;19996;-46
2023/09/03 13:23:17;;;;;;;;;;;;;;;;;;5001804;28;20004;-44
2023/09/03 13:25:43;;;;;;;;;;;;;;;;;;5009746;28;19917;-44
2023/09/03 13:28:09;;;;;;;;;;;;;;;;;;4998230;28;19917;-47
2023/09/03 13:30:35;;;;;;;;;;;;;;;;;;4997606;28;19972;-47
2023/09/03 13:33:01;;;;;;;;;;;;;;;;;;4984095;28;19964;-47
2023/09/03 13:35:27;;;;;;;;;;;;;;;;;;5001821;28;20398;-45
2023/09/03 13:37:53;;;;;;;;;;;;;;;;;;4984878;28;20227;-44
2023/09/03 13:40:19;;;;;;;;;;;;;;;;;;4983691;28;19951;-45
2023/09/03 13:42:45;;;;;;;;;;;;;;;;;;5004664;28;19936;-46
2023/09/03 13:45:12;;;;;;;;;;;;;;;;;;5002608;28;19940;-45
2023/09/03 13:47:38;;;;;;;;;;;;;;;;;;4985546;28;20368;-47
2023/09/03 13:50:05;;;;;;;;;;;;;;;;;;5005669;28;19909;-45
2023/09/03 13:52:31;;;;;;;;;;;;;;;;;;5009669;28;19909;-45
2023/09/03 13:54:57;;;;;;;;;;;;;;;;;;4998855;28;20407;-45
2023/09/03 13:57:23;;;;;;;;;;;;;;;;;;4967492;28;19924;-49
2023/09/03 13:59:49;;;;;;;;;;;;;;;;;;5003766;28;19956;-45
2023/09/03 14:02:15;;;;;;;;;;;;;;;;;;5007504;28;19910;-48
2023/09/03 14:04:41;;;;;;;;;;;;;;;;;;5007679;28;19913;-49
2023/09/03 14:07:06;;;;;;;;;;;;;;;;;;5007898;28;19914;-47
2023/09/03 14:09:32;;;;;;;;;;;;;;;;;;5007881;28;20376;-48
2023/09/03 14:11:58;;;;;;;;;;;;;;;;;;5008263;28;19913;-47
2023/09/03 14:14:24;;;;;;;;;;;;;;;;;;5009397;28;19949;-47
2023/09/03 14:16:50;;;;;;;;;;;;;;;;;;5006955;28;19920;-45
2023/09/03 14:19:16;;;;;;;;;;;;;;;;;;4943226;28;1840189;-45
2023/09/03 14:21:42;;;;;;;;;;;;;;;;;;5009354;28;19913;-45
2023/09/03 14:24:08;;;;;;;;;;;;;;;;;;5008375;28;19910;-48
2023/09/03 14:26:34;;;;;;;;;;;;;;;;;;5010061;28;20551;-46
2023/09/03 14:29:00;;;;;;;;;;;;;;;;;;5006935;28;19945;-45
2023/09/03 14:31:26;;;;;;;;;;;;;;;;;;5009064;28;19913;-45
2023/09/03 14:33:52;;;;;;;;;;;;;;;;;;5008901;28;19988;-46
2023/09/03 14:36:18;;;;;;;;;;;;;;;;;;5019775;28;19996;-48
2023/09/03 14:38:44;;;;;;;;;;;;;;;;;;5028799;28;19910;-44
2023/09/03 14:41:10;;;;;;;;;;;;;;;;;;5018500;28;19955;-45
2023/09/03 14:43:36;;;;;;;;;;;;;;;;;;4996490;28;20287;-48
2023/09/03 14:46:02;;;;;;;;;;;;;;;;;;5007475;28;19987;-46
2023/09/03 14:48:28;;;;;;;;;;;;;;;;;;4990579;28;20307;-48
2023/09/03 14:50:54;;;;;;;;;;;;;;;;;;5007040;28;20395;-46
2023/09/03 14:53:20;;;;;;;;;;;;;;;;;;5007005;28;19999;-46
2023/09/03 14:55:46;;;;;;;;;;;;;;;;;;5002373;28;20392;-47
2023/09/03 14:58:13;;;;;;;;;;;;;;;;;;5001955;28;20410;-47
2023/09/03 15:00:38;;;;;;;;;;;;;;;;;;5000218;28;19918;-47
2023/09/03 15:03:04;;;;;;;;;;;;;;;;;;5002108;28;20035;-45
2023/09/03 15:05:30;;;;;;;;;;;;;;;;;;5001794;28;19920;-46
2023/09/03 15:07:56;;;;;;;;;;;;;;;;;;4975023;28;19914;-46
2023/09/03 15:10:22;;;;;;;;;;;;;;;;;;4998785;28;19940;-48
2023/09/03 15:12:48;;;;;;;;;;;;;;;;;;5011505;28;20021;-49
2023/09/03 15:15:14;;;;;;;;;;;;;;;;;;5000140;28;19909;-47
2023/09/03 15:17:40;;;;;;;;;;;;;;;;;;5006367;28;19925;-46
2023/09/03 15:20:06;;;;;;;;;;;;;;;;;;5007438;28;19917;-46
2023/09/03 15:22:32;;;;;;;;;;;;;;;;;;5002628;28;20369;-47
2023/09/03 15:24:58;;;;;;;;;;;;;;;;;;5003451;28;19996;-45
2023/09/03 15:27:24;;;;;;;;;;;;;;;;;;5004556;28;19917;-49
2023/09/03 15:29:50;;;;;;;;;;;;;;;;;;5007843;28;19988;-45
2023/09/03 15:32:16;;;;;;;;;;;;;;;;;;5001115;28;19922;-47
2023/09/03 15:34:42;;;;;;;;;;;;;;;;;;5008567;28;19909;-44
2023/09/03 15:37:08;;;;;;;;;;;;;;;;;;5012643;28;19983;-46
2023/09/03 15:39:34;;;;;;;;;;;;;;;;;;5001627;28;19924;-44
2023/09/03 15:41:59;;;;;;;;;;;;;;;;;;5004869;28;20433;-49
2023/09/03 15:44:25;;;;;;;;;;;;;;;;;;5002561;28;19913;-45
2023/09/03 15:46:52;;;;;;;;;;;;;;;;;;5005175;28;20563;-47
2023/09/03 15:49:18;;;;;;;;;;;;;;;;;;4977770;28;20368;-48
2023/09/03 15:51:47;;;;;;;;;;;;;;;;;;5004166;28;20004;-45
2023/09/03 15:54:13;;;;;;;;;;;;;;;;;;4974060;28;19920;-47
2023/09/03 15:56:40;;;;;;;;;;;;;;;;;;5003945;28;20016;-46
2023/09/03 15:59:06;;;;;;;;;;;;;;;;;;5004657;28;19918;-46
2023/09/03 16:01:32;;;;;;;;;;;;;;;;;;5006216;28;20279;-45
2023/09/03 16:03:58;;;;;;;;;;;;;;;;;;5017102;28;19973;-46
2023/09/03 16:06:24;;;;;;;;;;;;;;;;;;5000134;28;19952;-46
2023/09/03 16:08:50;;;;;;;;;;;;;;;;;;5003540;28;20340;-45
2023/09/03 16:11:17;;;;;;;;;;;;;;;;;;4998039;28;19917;-45
2023/09/03 16:13:43;;;;;;;;;;;;;;;;;;5003238;28;19913;-47
2023/09/03 16:16:09;;;;;;;;;;;;;;;;;;4994300;28;20310;-48
2023/09/03 16:18:35;;;;;;;;;;;;;;;;;;5004839;28;20231;-47
2023/09/03 16:21:01;;;;;;;;;;;;;;;;;;5005101;28;19983;-45
2023/09/03 16:23:27;;;;;;;;;;;;;;;;;;5000785;28;19921;-45
2023/09/03 16:25:52;;;;;;;;;;;;;;;;;;4999178;28;20332;-44
2023/09/03 16:28:18;;;;;;;;;;;;;;;;;;5005997;28;20059;-46
2023/09/03 16:30:44;;;;;;;;;;;;;;;;;;5003966;28;20368;-47
2023/09/03 16:33:10;;;;;;;;;;;;;;;;;;5000643;28;19914;-47
2023/09/03 16:35:36;;;;;;;;;;;;;;;;;;4984581;28;19917;-45
2023/09/03 16:38:02;;;;;;;;;;;;;;;;;;4974922;28;19960;-45
2023/09/03 16:40:28;;;;;;;;;;;;;;;;;;4987891;28;19917;-45
2023/09/03 16:42:54;;;;;;;;;;;;;;;;;;5006436;28;20045;-44
2023/09/03 16:45:20;;;;;;;;;;;;;;;;;;5004613;28;20045;-44
2023/09/03 16:47:47;;;;;;;;;;;;;;;;;;5002994;28;20177;-45
2023/09/03 16:50:13;;;;;;;;;;;;;;;;;;4997907;28;19917;-44
2023/09/03 16:52:39;;;;;;;;;;;;;;;;;;4990259;28;20287;-46
2023/09/03 16:55:05;;;;;;;;;;;;;;;;;;5005568;28;19921;-45
2023/09/03 16:57:33;;;;;;;;;;;;;;;;;;5002273;28;20280;-48
2023/09/03 16:59:59;;;;;;;;;;;;;;;;;;5003760;28;19921;-46
2023/09/03 17:02:25;;;;;;;;;;;;;;;;;;4999841;28;19914;-45
2023/09/03 17:04:51;;;;;;;;;;;;;;;;;;4987178;28;20399;-46
2023/09/03 17:07:16;;;;;;;;;;;;;;;;;;4997728;28;19967;-49
2023/09/03 17:09:42;;;;;;;;;;;;;;;;;;5009569;28;19967;-46
2023/09/03 17:12:08;;;;;;;;;;;;;;;;;;4993681;28;19980;-46
2023/09/03 17:14:34;;;;;;;;;;;;;;;;;;4988914;28;19921;-49
2023/09/03 17:17:05;;;;;;;;;;;;;;;;;;5006018;28;20395;-45
2023/09/03 17:19:31;;;;;;;;;;;;;;;;;;5015905;28;19921;-46
2023/09/03 17:21:57;;;;;;;;;;;;;;;;;;5018005;28;19962;-44
2023/09/03 17:24:23;;;;;;;;;;;;;;;;;;5017918;28;19913;-53
2023/09/03 17:26:49;;;;;;;;;;;;;;;;;;5004995;28;19913;-51
2023/09/03 17:29:15;;;;;;;;;;;;;;;;;;4974116;28;19941;-53
2023/09/03 17:31:41;;;;;;;;;;;;;;;;;;4999423;28;19914;-52
2023/09/03 17:34:07;;;;;;;;;;;;;;;;;;5026935;28;19909;-51
2023/09/03 17:36:33;;;;;;;;;;;;;;;;;;5009794;28;20304;-53
2023/09/03 17:38:59;;;;;;;;;;;;;;;;;;5010252;28;20395;-54
2023/09/03 17:41:25;;;;;;;;;;;;;;;;;;5011528;28;19910;-51
2023/09/03 17:43:51;;;;;;;;;;;;;;;;;;5014113;28;19921;-54
2023/09/03 17:46:17;;;;;;;;;;;;;;;;;;4992061;28;19920;-50
2023/09/03 17:48:42;;;;;;;;;;;;;;;;;;5009630;28;19921;-53
2023/09/03 17:51:08;;;;;;;;;;;;;;;;;;5008407;28;19943;-54
2023/09/03 17:53:34;;;;;;;;;;;;;;;;;;5009579;28;20008;-54
2023/09/03 17:56:00;;;;;;;;;;;;;;;;;;5007950;28;19920;-50
2023/09/03 17:58:26;;;;;;;;;;;;;;;;;;5007492;28;19920;-53
2023/09/03 18:00:52;;;;;;;;;;;;;;;;;;5001657;28;19918;-51
2023/09/03 18:03:18;;;;;;;;;;;;;;;;;;5008616;28;19964;-54
2023/09/03 18:05:43;;;;;;;;;;;;;;;;;;5010401;28;19925;-53
2023/09/03 18:08:09;;;;;;;;;;;;;;;;;;5006019;28;20515;-53
2023/09/03 18:10:35;;;;;;;;;;;;;;;;;;5008202;28;19913;-53
2023/09/03 18:13:01;;;;;;;;;;;;;;;;;;5007669;28;19924;-52
2023/09/03 18:15:27;;;;;;;;;;;;;;;;;;4977836;28;19952;-52
2023/09/03 18:17:53;;;;;;;;;;;;;;;;;;5005545;28;19967;-52
2023/09/03 18:20:20;;;;;;;;;;;;;;;;;;5008278;28;19953;-52
2023/09/03 18:22:46;;;;;;;;;;;;;;;;;;5000657;28;19913;-53
2023/09/03 18:25:12;;;;;;;;;;;;;;;;;;5008899;28;19919;-53
2023/09/03 18:27:38;;;;;;;;;;;;;;;;;;4987513;28;19918;-53
2023/09/03 18:30:06;;;;;;;;;;;;;;;;;;5006998;28;19924;-51
2023/09/03 18:32:32;;;;;;;;;;;;;;;;;;5006324;28;19922;-52
2023/09/03 18:34:58;;;;;;;;;;;;;;;;;;5009179;28;19913;-52
2023/09/03 18:37:24;;;;;;;;;;;;;;;;;;5006596;28;19916;-53
2023/09/03 18:39:50;;;;;;;;;;;;;;;;;;5010001;28;19913;-51
2023/09/03 18:42:16;;;;;;;;;;;;;;;;;;5009651;28;19913;-52
2023/09/03 18:44:42;;;;;;;;;;;;;;;;;;5009313;28;19910;-51
2023/09/03 18:47:08;;;;;;;;;;;;;;;;;;4988367;28;19921;-54
2023/09/03 18:49:34;;;;;;;;;;;;;;;;;;5003411;28;19933;-54
2023/09/03 18:52:00;;;;;;;;;;;;;;;;;;5005382;28;19925;-52
2023/09/03 18:54:28;;;;;;;;;;;;;;;;;;4998535;28;19914;-52
2023/09/03 18:56:54;;;;;;;;;;;;;;;;;;5003255;28;19937;-53
2023/09/03 18:59:22;;;;;;;;;;;;;;;;;;5003010;28;19913;-52
2023/09/03 19:01:48;;;;;;;;;;;;;;;;;;5004486;28;19918;-49
2023/09/03 19:04:14;;;;;;;;;;;;;;;;;;5009676;28;19932;-53
2023/09/03 19:06:40;;;;;;;;;;;;;;;;;;5006954;28;19916;-51
2023/09/03 19:09:06;;;;;;;;;;;;;;;;;;5007833;28;20883;-53
2023/09/03 19:11:32;;;;;;;;;;;;;;;;;;4998779;28;19969;-49
2023/09/03 19:13:58;;;;;;;;;;;;;;;;;;5006043;28;19921;-51
2023/09/03 19:16:24;;;;;;;;;;;;;;;;;;5009099;28;19916;-49
2023/09/03 19:18:50;;;;;;;;;;;;;;;;;;4989845;28;19917;-51
2023/09/03 19:21:17;;;;;;;;;;;;;;;;;;5008143;28;19921;-52
2023/09/03 19:23:43;;;;;;;;;;;;;;;;;;4996398;28;20332;-52
2023/09/03 19:26:10;;;;;;;;;;;;;;;;;;4999742;28;19932;-51
2023/09/03 19:28:36;;;;;;;;;;;;;;;;;;5009207;28;19920;-50
2023/09/03 19:31:01;;;;;;;;;;;;;;;;;;5010085;28;19913;-51
2023/09/03 19:33:27;;;;;;;;;;;;;;;;;;5029200;28;20326;-50
2023/09/03 19:35:56;;;;;;;;;;;;;;;;;;5023576;28;19928;-52
2023/09/03 19:38:22;;;;;;;;;;;;;;;;;;5014490;28;19917;-49
2023/09/03 19:40:51;;;;;;;;;;;;;;;;;;5012417;28;20280;-53
2023/09/03 19:43:19;;;;;;;;;;;;;;;;;;4990235;28;20442;-49
2023/09/03 19:45:45;;;;;;;;;;;;;;;;;;5005790;28;20134;-52
2023/09/03 19:48:10;;;;;;;;;;;;;;;;;;5005706;28;19917;-50
2023/09/03 19:50:36;;;;;;;;;;;;;;;;;;5008271;28;20395;-51
2023/09/03 19:53:02;;;;;;;;;;;;;;;;;;5008004;28;19991;-51
2023/09/03 19:55:28;;;;;;;;;;;;;;;;;;5008728;28;19921;-51
2023/09/03 19:57:54;;;;;;;;;;;;;;;;;;5007926;28;19914;-51
2023/09/03 20:00:20;;;;;;;;;;;;;;;;;;5004985;28;19914;-49
2023/09/03 20:02:46;;;;;;;;;;;;;;;;;;5008135;28;19909;-50
2023/09/03 20:05:13;;;;;;;;;;;;;;;;;;4988933;28;19914;-52
2023/09/03 20:07:39;;;;;;;;;;;;;;;;;;4989953;28;20308;-51
2023/09/03 20:10:05;;;;;;;;;;;;;;;;;;4989819;28;19913;-51
2023/09/03 20:12:31;;;;;;;;;;;;;;;;;;5006707;28;19920;-50
2023/09/03 20:14:56;;;;;;;;;;;;;;;;;;4998103;28;19924;-52
2023/09/03 20:17:22;;;;;;;;;;;;;;;;;;4980881;28;19964;-51
2023/09/03 20:19:48;;;;;;;;;;;;;;;;;;5006356;28;19936;-49
2023/09/03 20:22:18;;;;;;;;;;;;;;;;;;5005617;28;20301;-52
2023/09/03 20:24:44;;;;;;;;;;;;;;;;;;5003390;28;19910;-52
2023/09/03 20:27:10;;;;;;;;;;;;;;;;;;5004633;28;20024;-51
2023/09/03 20:29:36;;;;;;;;;;;;;;;;;;5008593;28;19920;-50
2023/09/03 20:32:02;;;;;;;;;;;;;;;;;;5007553;28;19909;-50
2023/09/03 20:34:29;;;;;;;;;;;;;;;;;;5006042;28;19920;-53
2023/09/03 20:36:55;;;;;;;;;;;;;;;;;;4998541;28;20615;-53
2023/09/03 20:39:21;;;;;;;;;;;;;;;;;;4988136;28;19984;-49
2023/09/03 20:41:47;;;;;;;;;;;;;;;;;;5005999;28;19917;-48
2023/09/03 20:44:14;;;;;;;;;;;;;;;;;;4982494;28;19917;-52
2023/09/03 20:46:39;;;;;;;;;;;;;;;;;;5003443;28;19917;-53
2023/09/03 20:49:06;;;;;;;;;;;;;;;;;;5008652;28;19917;-51
2023/09/03 20:51:31;;;;;;;;;;;;;;;;;;5007807;28;19919;-52
2023/09/03 20:53:57;;;;;;;;;;;;;;;;;;5009862;28;19909;-50
2023/09/03 20:56:23;;;;;;;;;;;;;;;;;;5008192;28;20249;-53
2023/09/03 20:58:49;;;;;;;;;;;;;;;;;;5008172;28;19944;-51
2023/09/03 21:01:15;;;;;;;;;;;;;;;;;;5007893;28;19914;-50
2023/09/03 21:03:42;;;;;;;;;;;;;;;;;;5007011;28;20311;-51
2023/09/03 21:06:08;;;;;;;;;;;;;;;;;;5009286;28;19921;-52
2023/09/03 21:08:34;;;;;;;;;;;;;;;;;;5008990;28;19913;-53
2023/09/03 21:11:00;;;;;;;;;;;;;;;;;;4993368;28;19910;-49
2023/09/03 21:13:26;;;;;;;;;;;;;;;;;;5001480;28;19931;-51
2023/09/03 21:15:53;;;;;;;;;;;;;;;;;;4992698;28;19918;-50
2023/09/03 21:18:19;;;;;;;;;;;;;;;;;;4989207;28;20004;-49
2023/09/03 21:20:45;;;;;;;;;;;;;;;;;;4989599;28;20494;-50
2023/09/03 21:23:10;;;;;;;;;;;;;;;;;;4977679;28;19909;-53
2023/09/03 21:25:37;;;;;;;;;;;;;;;;;;4991594;28;19916;-50
2023/09/03 21:28:03;;;;;;;;;;;;;;;;;;5009019;28;19913;-51
2023/09/03 21:30:31;;;;;;;;;;;;;;;;;;5009168;28;19909;-51
2023/09/03 21:32:57;;;;;;;;;;;;;;;;;;5008211;28;19964;-48
2023/09/03 21:35:22;;;;;;;;;;;;;;;;;;5008726;28;20391;-51
2023/09/03 21:37:48;;;;;;;;;;;;;;;;;;5007474;28;19968;-53
2023/09/03 21:40:14;;;;;;;;;;;;;;;;;;5009158;28;19915;-51
2023/09/03 21:42:40;;;;;;;;;;;;;;;;;;5007347;28;20394;-52
2023/09/03 21:45:06;;;;;;;;;;;;;;;;;;5009061;28;19939;-52
2023/09/03 21:47:32;;;;;;;;;;;;;;;;;;5008817;28;19945;-49
2023/09/03 21:49:58;;;;;;;;;;;;;;;;;;5009516;28;20283;-53
2023/09/03 21:52:24;;;;;;;;;;;;;;;;;;5008714;28;19913;-53
2023/09/03 21:54:49;;;;;;;;;;;;;;;;;;5008917;28;19910;-52